createdAt,value
2017-01-20T00:04:18.360Z,1029.4
2017-01-20T00:14:31.874Z,1029.4
2017-01-20T00:24:45.906Z,1029.3
2017-01-20T00:34:59.753Z,1029.2
2017-01-20T00:45:15.015Z,1029.1
2017-01-20T00:55:29.404Z,1029
2017-01-20T01:05:43.507Z,1029
2017-01-20T01:15:58.227Z,1028.9
2017-01-20T01:26:11.889Z,1028.9
2017-01-20T01:36:25.874Z,1029.1
2017-01-20T01:56:54.041Z,1028.9
2017-01-20T02:07:08.784Z,1028.9
2017-01-20T02:17:22.654Z,1029
2017-01-20T02:27:37.410Z,1028.9
2017-01-20T02:37:51.059Z,1028.9
2017-01-20T02:48:05.045Z,1028.9
2017-01-20T02:58:18.155Z,1028.8
2017-01-20T03:08:33.126Z,1028.8
2017-01-20T03:18:47.548Z,1028.7
2017-01-20T03:29:02.299Z,1028.7
2017-01-20T03:39:17.061Z,1028.8
2017-01-20T03:49:31.657Z,1028.8
2017-01-20T03:59:44.818Z,1028.8
2017-01-20T04:09:58.694Z,1028.8
2017-01-20T04:20:11.780Z,1028.8
2017-01-20T04:30:25.068Z,1028.7
2017-01-20T04:40:38.841Z,1028.6
2017-01-20T04:50:52.456Z,1028.6
2017-01-20T05:01:06.745Z,1028.6
2017-01-20T05:11:20.732Z,1028.6
2017-01-20T05:21:34.773Z,1028.6
2017-01-20T05:31:49.137Z,1028.5
2017-01-20T05:52:17.356Z,1028.6
2017-01-20T06:02:31.371Z,1028.5
2017-01-20T06:12:44.839Z,1028.5
2017-01-20T06:22:57.907Z,1028.5
2017-01-20T06:33:13.129Z,1028.5
2017-01-20T06:43:26.810Z,1028.4
2017-01-20T06:53:41.186Z,1028.4
2017-01-20T07:03:55.224Z,1028.4
2017-01-20T07:14:08.840Z,1028.4
2017-01-20T07:24:23.826Z,1028.5
2017-01-20T07:34:37.367Z,1028.6
2017-01-20T07:44:51.755Z,1028.7
2017-01-20T07:55:05.651Z,1028.6
2017-01-20T08:05:20.172Z,1028.7
2017-01-20T08:15:33.211Z,1028.8
2017-01-20T08:25:48.163Z,1028.8
2017-01-20T08:36:03.164Z,1028.8
2017-01-20T08:46:16.715Z,1028.8
2017-01-20T08:56:30.811Z,1028.7
2017-01-20T09:06:44.781Z,1028.6
2017-01-20T09:16:59.493Z,1028.7
2017-01-20T09:27:12.985Z,1028.7
2017-01-20T09:37:27.769Z,1028.7
2017-01-20T09:47:42.306Z,1028.8
2017-01-20T09:57:55.404Z,1028.8
2017-01-20T10:08:09.710Z,1028.9
2017-01-20T10:18:23.423Z,1028.9
2017-01-20T10:28:37.622Z,1028.7
2017-01-20T10:38:51.073Z,1028.7
2017-01-20T10:49:05.751Z,1028.6
2017-01-20T10:59:20.259Z,1028.5
2017-01-20T11:09:33.384Z,1028.4
2017-01-20T11:19:46.809Z,1028.4
2017-01-20T11:30:00.050Z,1028.3
2017-01-20T11:40:14.783Z,1028.2
2017-01-20T11:50:28.541Z,1028.1
2017-01-20T12:00:43.020Z,1028
2017-01-20T12:10:57.791Z,1027.9
2017-01-20T12:21:12.770Z,1027.8
2017-01-20T12:31:27.062Z,1027.6
2017-01-20T12:41:41.738Z,1027.6
2017-01-20T12:51:56.314Z,1027.5
2017-01-20T13:02:09.482Z,1027.5
2017-01-20T13:12:23.688Z,1027.3
2017-01-20T13:22:37.072Z,1027.3
2017-01-20T13:32:50.821Z,1027.3
2017-01-20T13:43:05.329Z,1027.2
2017-01-20T13:53:19.981Z,1027.1
2017-01-20T14:03:34.531Z,1027.1
2017-01-20T14:13:48.809Z,1027.1
2017-01-20T14:24:02.095Z,1027.1
2017-01-20T14:34:15.446Z,1027
2017-01-20T14:44:30.075Z,1027
2017-01-20T14:54:43.780Z,1027
2017-01-20T15:04:59.657Z,1027
2017-01-20T15:15:11.793Z,1026.9
2017-01-20T15:25:25.735Z,1027
2017-01-20T15:35:39.903Z,1027
2017-01-20T15:45:54.411Z,1027.1
2017-01-20T15:56:08.526Z,1027.1
2017-01-20T16:06:22.282Z,1027
2017-01-20T16:16:36.559Z,1026.9
2017-01-20T16:26:49.787Z,1027
2017-01-20T16:37:03.311Z,1026.9
2017-01-20T16:47:17.929Z,1027
2017-01-20T16:57:30.564Z,1027
2017-01-20T17:07:44.706Z,1026.9
2017-01-20T17:17:57.958Z,1026.8
2017-01-20T17:28:11.320Z,1026.9
2017-01-20T17:38:25.090Z,1026.9
2017-01-20T17:48:38.571Z,1026.9
2017-01-20T17:58:51.876Z,1026.9
2017-01-20T18:09:05.978Z,1026.9
2017-01-20T18:19:20.486Z,1026.8
2017-01-20T18:29:35.014Z,1026.9
2017-01-20T18:39:48.283Z,1026.8
2017-01-20T18:50:01.604Z,1026.9
2017-01-20T19:00:15.071Z,1027
2017-01-20T19:10:29.872Z,1026.9
2017-01-20T19:20:42.900Z,1026.9
2017-01-20T19:30:57.386Z,1026.9
2017-01-20T19:41:10.960Z,1027
2017-01-20T19:51:26.024Z,1026.9
2017-01-20T20:01:40.320Z,1026.8
2017-01-20T20:11:54.336Z,1026.9
2017-01-20T20:22:07.382Z,1026.9
2017-01-20T20:32:21.645Z,1026.8
2017-01-20T20:42:35.994Z,1026.9
2017-01-20T20:52:50.261Z,1026.8
2017-01-20T21:03:03.515Z,1026.7
2017-01-20T21:13:17.911Z,1026.6
2017-01-20T21:23:32.041Z,1026.6
2017-01-20T21:33:46.805Z,1026.7
2017-01-20T21:44:01.869Z,1026.5
2017-01-20T21:54:15.564Z,1026.6
2017-01-20T22:04:30.114Z,1026.5
2017-01-20T22:14:43.616Z,1026.4
2017-01-20T22:24:58.508Z,1026.4
2017-01-20T22:35:12.685Z,1026.4
2017-01-20T22:45:27.209Z,1026.3
2017-01-20T22:55:41.062Z,1026.3
2017-01-20T23:05:55.791Z,1026.1
2017-01-20T23:16:09.279Z,1026.1
2017-01-20T23:26:23.264Z,1026
2017-01-20T23:36:36.481Z,1026
2017-01-20T23:46:50.726Z,1026
2017-01-20T23:57:03.748Z,1026
